sensor_id;sensor_type;location;lat;lon;timestamp;P1;durP1;ratioP1;P2;durP2;ratioP2
27161;SDS011;54464;50.558;9.704;2023-01-20T00:00:08;36.27;;;20.13;;
27161;SDS011;54464;50.558;9.704;2023-01-20T00:02:35;39.77;;;22.03;;
27161;SDS011;54464;50.558;9.704;2023-01-20T00:05:01;41.97;;;23.07;;
27161;SDS011;54464;50.558;9.704;2023-01-20T00:07:27;38.03;;;21.03;;
27161;SDS011;54464;50.558;9.704;2023-01-20T00:09:52;38.53;;;20.77;;
27161;SDS011;54464;50.558;9.704;2023-01-20T00:12:18;38.90;;;20.87;;
27161;SDS011;54464;50.558;9.704;2023-01-20T00:14:43;39.20;;;20.73;;
27161;SDS011;54464;50.558;9.704;2023-01-20T00:17:09;38.77;;;20.87;;
27161;SDS011;54464;50.558;9.704;2023-01-20T00:19:35;41.47;;;21.77;;
27161;SDS011;54464;50.558;9.704;2023-01-20T00:22:01;42.33;;;23.50;;
27161;SDS011;54464;50.558;9.704;2023-01-20T00:24:26;44.63;;;23.63;;
27161;SDS011;54464;50.558;9.704;2023-01-20T00:26:52;37.23;;;21.43;;
27161;SDS011;54464;50.558;9.704;2023-01-20T00:29:18;41.10;;;22.17;;
27161;SDS011;54464;50.558;9.704;2023-01-20T00:31:44;42.97;;;23.53;;
27161;SDS011;54464;50.558;9.704;2023-01-20T00:34:09;43.73;;;23.53;;
27161;SDS011;54464;50.558;9.704;2023-01-20T00:36:35;43.43;;;23.87;;
27161;SDS011;54464;50.558;9.704;2023-01-20T00:39:01;32.60;;;18.43;;
27161;SDS011;54464;50.558;9.704;2023-01-20T00:41:28;40.30;;;22.40;;
27161;SDS011;54464;50.558;9.704;2023-01-20T00:43:57;37.10;;;20.10;;
27161;SDS011;54464;50.558;9.704;2023-01-20T00:46:23;38.93;;;20.90;;
27161;SDS011;54464;50.558;9.704;2023-01-20T00:48:49;39.73;;;21.93;;
27161;SDS011;54464;50.558;9.704;2023-01-20T00:51:18;37.97;;;21.83;;
27161;SDS011;54464;50.558;9.704;2023-01-20T00:53:45;30.63;;;17.83;;
27161;SDS011;54464;50.558;9.704;2023-01-20T00:56:10;41.33;;;21.87;;
27161;SDS011;54464;50.558;9.704;2023-01-20T00:58:41;32.60;;;18.70;;
27161;SDS011;54464;50.558;9.704;2023-01-20T01:01:08;40.27;;;22.17;;
27161;SDS011;54464;50.558;9.704;2023-01-20T01:03:34;36.03;;;21.73;;
27161;SDS011;54464;50.558;9.704;2023-01-20T01:06:10;38.97;;;20.77;;
27161;SDS011;54464;50.558;9.704;2023-01-20T01:08:37;38.73;;;21.80;;
27161;SDS011;54464;50.558;9.704;2023-01-20T01:11:03;32.70;;;18.23;;
27161;SDS011;54464;50.558;9.704;2023-01-20T01:13:29;32.43;;;18.87;;
27161;SDS011;54464;50.558;9.704;2023-01-20T01:15:56;30.57;;;18.03;;
27161;SDS011;54464;50.558;9.704;2023-01-20T01:18:21;33.27;;;19.10;;
27161;SDS011;54464;50.558;9.704;2023-01-20T01:20:47;39.30;;;20.77;;
27161;SDS011;54464;50.558;9.704;2023-01-20T01:23:13;31.37;;;17.87;;
27161;SDS011;54464;50.558;9.704;2023-01-20T01:25:39;38.27;;;21.10;;
27161;SDS011;54464;50.558;9.704;2023-01-20T01:28:04;34.67;;;21.40;;
27161;SDS011;54464;50.558;9.704;2023-01-20T01:30:30;39.83;;;21.50;;
27161;SDS011;54464;50.558;9.704;2023-01-20T01:32:56;38.40;;;22.47;;
27161;SDS011;54464;50.558;9.704;2023-01-20T01:37:55;40.43;;;22.37;;
27161;SDS011;54464;50.558;9.704;2023-01-20T01:40:21;36.43;;;22.23;;
27161;SDS011;54464;50.558;9.704;2023-01-20T01:42:46;41.57;;;23.10;;
27161;SDS011;54464;50.558;9.704;2023-01-20T01:51:04;40.63;;;23.57;;
27161;SDS011;54464;50.558;9.704;2023-01-20T01:53:58;43.57;;;23.67;;
27161;SDS011;54464;50.558;9.704;2023-01-20T01:56:28;41.50;;;22.77;;
27161;SDS011;54464;50.558;9.704;2023-01-20T01:58:55;43.37;;;23.73;;
27161;SDS011;54464;50.558;9.704;2023-01-20T02:01:23;43.13;;;22.80;;
27161;SDS011;54464;50.558;9.704;2023-01-20T02:03:54;39.10;;;22.33;;
27161;SDS011;54464;50.558;9.704;2023-01-20T02:06:24;39.83;;;22.40;;
27161;SDS011;54464;50.558;9.704;2023-01-20T02:08:53;32.67;;;20.83;;
27161;SDS011;54464;50.558;9.704;2023-01-20T02:11:19;37.07;;;21.47;;
27161;SDS011;54464;50.558;9.704;2023-01-20T02:13:45;36.37;;;19.97;;
27161;SDS011;54464;50.558;9.704;2023-01-20T02:18:52;36.87;;;21.87;;
27161;SDS011;54464;50.558;9.704;2023-01-20T02:27:16;36.57;;;19.93;;
27161;SDS011;54464;50.558;9.704;2023-01-20T02:33:19;36.60;;;20.73;;
27161;SDS011;54464;50.558;9.704;2023-01-20T02:35:52;32.93;;;19.53;;
27161;SDS011;54464;50.558;9.704;2023-01-20T02:38:29;37.23;;;21.70;;
27161;SDS011;54464;50.558;9.704;2023-01-20T02:49:35;36.73;;;21.03;;
27161;SDS011;54464;50.558;9.704;2023-01-20T02:52:13;38.53;;;22.03;;
27161;SDS011;54464;50.558;9.704;2023-01-20T02:54:43;34.43;;;20.37;;
27161;SDS011;54464;50.558;9.704;2023-01-20T02:57:14;36.70;;;20.20;;
27161;SDS011;54464;50.558;9.704;2023-01-20T02:59:43;35.20;;;19.77;;
27161;SDS011;54464;50.558;9.704;2023-01-20T03:02:16;40.07;;;21.47;;
27161;SDS011;54464;50.558;9.704;2023-01-20T03:04:46;33.17;;;19.47;;
27161;SDS011;54464;50.558;9.704;2023-01-20T03:07:13;37.27;;;20.57;;
27161;SDS011;54464;50.558;9.704;2023-01-20T03:09:41;36.33;;;21.00;;
27161;SDS011;54464;50.558;9.704;2023-01-20T03:12:15;35.23;;;19.97;;
27161;SDS011;54464;50.558;9.704;2023-01-20T03:14:48;31.70;;;17.97;;
27161;SDS011;54464;50.558;9.704;2023-01-20T03:17:16;34.13;;;20.10;;
27161;SDS011;54464;50.558;9.704;2023-01-20T03:19:44;26.83;;;16.13;;
27161;SDS011;54464;50.558;9.704;2023-01-20T03:22:10;28.13;;;16.20;;
27161;SDS011;54464;50.558;9.704;2023-01-20T03:24:37;28.90;;;18.17;;
27161;SDS011;54464;50.558;9.704;2023-01-20T03:27:04;28.77;;;17.20;;
27161;SDS011;54464;50.558;9.704;2023-01-20T03:29:37;27.90;;;16.47;;
27161;SDS011;54464;50.558;9.704;2023-01-20T03:32:07;32.13;;;18.57;;
27161;SDS011;54464;50.558;9.704;2023-01-20T03:34:38;32.77;;;19.93;;
27161;SDS011;54464;50.558;9.704;2023-01-20T03:37:06;34.97;;;20.73;;
27161;SDS011;54464;50.558;9.704;2023-01-20T03:39:33;30.77;;;19.33;;
27161;SDS011;54464;50.558;9.704;2023-01-20T03:50:14;30.33;;;17.20;;
27161;SDS011;54464;50.558;9.704;2023-01-20T03:53:14;28.80;;;17.00;;
27161;SDS011;54464;50.558;9.704;2023-01-20T03:55:57;30.17;;;18.57;;
27161;SDS011;54464;50.558;9.704;2023-01-20T03:58:29;39.33;;;23.27;;
27161;SDS011;54464;50.558;9.704;2023-01-20T04:01:04;36.13;;;20.67;;
27161;SDS011;54464;50.558;9.704;2023-01-20T04:03:37;35.97;;;19.07;;
27161;SDS011;54464;50.558;9.704;2023-01-20T04:06:04;35.07;;;18.13;;
27161;SDS011;54464;50.558;9.704;2023-01-20T04:08:33;34.30;;;18.30;;
27161;SDS011;54464;50.558;9.704;2023-01-20T04:11:04;36.57;;;19.53;;
27161;SDS011;54464;50.558;9.704;2023-01-20T04:13:31;41.63;;;21.07;;
27161;SDS011;54464;50.558;9.704;2023-01-20T04:15:58;33.60;;;18.27;;
27161;SDS011;54464;50.558;9.704;2023-01-20T04:18:25;31.80;;;18.17;;
27161;SDS011;54464;50.558;9.704;2023-01-20T04:20:59;33.37;;;18.03;;
27161;SDS011;54464;50.558;9.704;2023-01-20T04:26:01;39.07;;;19.90;;
27161;SDS011;54464;50.558;9.704;2023-01-20T04:28:26;35.77;;;19.83;;
27161;SDS011;54464;50.558;9.704;2023-01-20T04:30:52;38.50;;;20.87;;
27161;SDS011;54464;50.558;9.704;2023-01-20T04:33:18;43.73;;;21.93;;
27161;SDS011;54464;50.558;9.704;2023-01-20T04:35:43;41.43;;;21.67;;
27161;SDS011;54464;50.558;9.704;2023-01-20T04:38:09;37.73;;;19.40;;
27161;SDS011;54464;50.558;9.704;2023-01-20T04:40:35;47.07;;;22.60;;
27161;SDS011;54464;50.558;9.704;2023-01-20T04:43:00;43.37;;;21.27;;
27161;SDS011;54464;50.558;9.704;2023-01-20T04:45:26;41.53;;;21.73;;
27161;SDS011;54464;50.558;9.704;2023-01-20T04:47:51;41.30;;;21.33;;
27161;SDS011;54464;50.558;9.704;2023-01-20T04:50:17;39.87;;;21.27;;
27161;SDS011;54464;50.558;9.704;2023-01-20T04:52:43;41.73;;;21.23;;
27161;SDS011;54464;50.558;9.704;2023-01-20T04:55:09;40.93;;;22.40;;
27161;SDS011;54464;50.558;9.704;2023-01-20T04:57:35;44.47;;;22.03;;
27161;SDS011;54464;50.558;9.704;2023-01-20T05:00:00;42.23;;;22.13;;
27161;SDS011;54464;50.558;9.704;2023-01-20T05:02:27;44.97;;;23.73;;
27161;SDS011;54464;50.558;9.704;2023-01-20T05:04:52;43.73;;;22.80;;
27161;SDS011;54464;50.558;9.704;2023-01-20T05:07:18;54.80;;;20.53;;
27161;SDS011;54464;50.558;9.704;2023-01-20T05:09:43;69.50;;;21.33;;
27161;SDS011;54464;50.558;9.704;2023-01-20T05:12:09;43.07;;;18.40;;
27161;SDS011;54464;50.558;9.704;2023-01-20T05:14:35;61.50;;;19.53;;
27161;SDS011;54464;50.558;9.704;2023-01-20T05:17:00;44.43;;;19.20;;
27161;SDS011;54464;50.558;9.704;2023-01-20T05:19:26;71.87;;;20.23;;
27161;SDS011;54464;50.558;9.704;2023-01-20T05:21:51;165.73;;;23.47;;
27161;SDS011;54464;50.558;9.704;2023-01-20T05:24:17;121.73;;;18.50;;
27161;SDS011;54464;50.558;9.704;2023-01-20T05:26:43;43.67;;;15.63;;
27161;SDS011;54464;50.558;9.704;2023-01-20T05:29:12;112.97;;;21.00;;
27161;SDS011;54464;50.558;9.704;2023-01-20T05:31:37;48.13;;;18.03;;
27161;SDS011;54464;50.558;9.704;2023-01-20T05:34:07;33.53;;;17.40;;
27161;SDS011;54464;50.558;9.704;2023-01-20T05:36:33;166.43;;;24.60;;
27161;SDS011;54464;50.558;9.704;2023-01-20T05:38:59;54.60;;;16.73;;
27161;SDS011;54464;50.558;9.704;2023-01-20T05:41:25;41.63;;;15.60;;
27161;SDS011;54464;50.558;9.704;2023-01-20T05:43:53;88.20;;;16.50;;
27161;SDS011;54464;50.558;9.704;2023-01-20T05:46:19;38.80;;;15.50;;
27161;SDS011;54464;50.558;9.704;2023-01-20T05:48:45;43.50;;;17.67;;
27161;SDS011;54464;50.558;9.704;2023-01-20T05:51:11;162.50;;;18.73;;
27161;SDS011;54464;50.558;9.704;2023-01-20T05:53:36;59.03;;;13.87;;
27161;SDS011;54464;50.558;9.704;2023-01-20T05:56:04;106.50;;;15.83;;
27161;SDS011;54464;50.558;9.704;2023-01-20T05:58:30;212.30;;;18.83;;
27161;SDS011;54464;50.558;9.704;2023-01-20T06:01:06;91.43;;;18.93;;
27161;SDS011;54464;50.558;9.704;2023-01-20T06:03:35;40.40;;;15.03;;
27161;SDS011;54464;50.558;9.704;2023-01-20T06:06:01;191.10;;;19.53;;
27161;SDS011;54464;50.558;9.704;2023-01-20T06:08:29;123.07;;;17.83;;
27161;SDS011;54464;50.558;9.704;2023-01-20T06:10:54;40.47;;;11.60;;
27161;SDS011;54464;50.558;9.704;2023-01-20T06:13:20;172.43;;;17.13;;
27161;SDS011;54464;50.558;9.704;2023-01-20T06:15:49;52.63;;;14.50;;
27161;SDS011;54464;50.558;9.704;2023-01-20T06:18:19;220.40;;;20.73;;
27161;SDS011;54464;50.558;9.704;2023-01-20T06:20:45;229.43;;;24.80;;
27161;SDS011;54464;50.558;9.704;2023-01-20T06:23:11;34.33;;;11.30;;
27161;SDS011;54464;50.558;9.704;2023-01-20T06:25:37;40.47;;;11.47;;
27161;SDS011;54464;50.558;9.704;2023-01-20T06:28:03;37.17;;;11.23;;
27161;SDS011;54464;50.558;9.704;2023-01-20T06:30:29;38.03;;;14.40;;
27161;SDS011;54464;50.558;9.704;2023-01-20T06:32:54;151.70;;;18.80;;
27161;SDS011;54464;50.558;9.704;2023-01-20T06:35:22;127.20;;;19.43;;
27161;SDS011;54464;50.558;9.704;2023-01-20T06:37:50;118.13;;;18.43;;
27161;SDS011;54464;50.558;9.704;2023-01-20T06:40:16;157.07;;;20.13;;
27161;SDS011;54464;50.558;9.704;2023-01-20T06:42:42;73.53;;;17.40;;
27161;SDS011;54464;50.558;9.704;2023-01-20T06:45:08;120.03;;;17.10;;
27161;SDS011;54464;50.558;9.704;2023-01-20T06:47:34;96.03;;;19.13;;
27161;SDS011;54464;50.558;9.704;2023-01-20T06:50:00;44.03;;;16.57;;
27161;SDS011;54464;50.558;9.704;2023-01-20T06:52:26;51.37;;;16.97;;
27161;SDS011;54464;50.558;9.704;2023-01-20T06:54:51;48.80;;;18.17;;
27161;SDS011;54464;50.558;9.704;2023-01-20T06:57:17;45.40;;;17.67;;
27161;SDS011;54464;50.558;9.704;2023-01-20T06:59:43;60.50;;;19.37;;
27161;SDS011;54464;50.558;9.704;2023-01-20T07:02:12;52.03;;;18.77;;
27161;SDS011;54464;50.558;9.704;2023-01-20T07:04:37;45.07;;;16.43;;
27161;SDS011;54464;50.558;9.704;2023-01-20T07:07:03;48.20;;;19.03;;
27161;SDS011;54464;50.558;9.704;2023-01-20T07:09:29;49.43;;;18.37;;
27161;SDS011;54464;50.558;9.704;2023-01-20T07:11:54;50.10;;;19.33;;
27161;SDS011;54464;50.558;9.704;2023-01-20T07:14:20;49.07;;;19.30;;
27161;SDS011;54464;50.558;9.704;2023-01-20T07:16:46;41.70;;;17.50;;
27161;SDS011;54464;50.558;9.704;2023-01-20T07:19:11;45.20;;;18.63;;
27161;SDS011;54464;50.558;9.704;2023-01-20T07:21:37;47.30;;;18.83;;
27161;SDS011;54464;50.558;9.704;2023-01-20T07:24:03;46.10;;;18.00;;
27161;SDS011;54464;50.558;9.704;2023-01-20T07:26:29;44.10;;;17.83;;
27161;SDS011;54464;50.558;9.704;2023-01-20T07:28:58;41.87;;;16.53;;
27161;SDS011;54464;50.558;9.704;2023-01-20T07:31:25;42.50;;;16.40;;
27161;SDS011;54464;50.558;9.704;2023-01-20T07:33:53;43.47;;;17.40;;
27161;SDS011;54464;50.558;9.704;2023-01-20T07:36:19;44.57;;;17.20;;
27161;SDS011;54464;50.558;9.704;2023-01-20T07:38:46;45.80;;;17.43;;
27161;SDS011;54464;50.558;9.704;2023-01-20T07:41:15;36.33;;;15.77;;
27161;SDS011;54464;50.558;9.704;2023-01-20T07:43:44;43.77;;;19.40;;
27161;SDS011;54464;50.558;9.704;2023-01-20T07:46:10;47.50;;;19.57;;
27161;SDS011;54464;50.558;9.704;2023-01-20T07:48:36;41.87;;;18.23;;
27161;SDS011;54464;50.558;9.704;2023-01-20T07:51:03;37.50;;;16.33;;
27161;SDS011;54464;50.558;9.704;2023-01-20T07:53:32;41.13;;;18.53;;
27161;SDS011;54464;50.558;9.704;2023-01-20T07:56:00;42.80;;;18.83;;
27161;SDS011;54464;50.558;9.704;2023-01-20T07:58:30;51.40;;;20.57;;
27161;SDS011;54464;50.558;9.704;2023-01-20T08:00:56;58.27;;;21.63;;
27161;SDS011;54464;50.558;9.704;2023-01-20T08:03:29;57.43;;;22.47;;
27161;SDS011;54464;50.558;9.704;2023-01-20T08:05:55;50.90;;;21.60;;
27161;SDS011;54464;50.558;9.704;2023-01-20T08:08:21;53.50;;;21.43;;
27161;SDS011;54464;50.558;9.704;2023-01-20T08:10:51;56.97;;;24.80;;
27161;SDS011;54464;50.558;9.704;2023-01-20T08:13:18;51.93;;;22.73;;
27161;SDS011;54464;50.558;9.704;2023-01-20T08:15:44;50.83;;;21.33;;
27161;SDS011;54464;50.558;9.704;2023-01-20T08:18:09;51.97;;;20.90;;
27161;SDS011;54464;50.558;9.704;2023-01-20T08:20:38;42.20;;;18.03;;
27161;SDS011;54464;50.558;9.704;2023-01-20T08:23:05;42.17;;;19.30;;
27161;SDS011;54464;50.558;9.704;2023-01-20T08:25:30;39.93;;;18.10;;
27161;SDS011;54464;50.558;9.704;2023-01-20T08:27:56;40.83;;;17.77;;
27161;SDS011;54464;50.558;9.704;2023-01-20T08:30:22;32.93;;;14.93;;
27161;SDS011;54464;50.558;9.704;2023-01-20T08:32:47;36.97;;;17.23;;
27161;SDS011;54464;50.558;9.704;2023-01-20T08:35:13;36.80;;;19.30;;
27161;SDS011;54464;50.558;9.704;2023-01-20T08:37:39;42.80;;;21.30;;
27161;SDS011;54464;50.558;9.704;2023-01-20T08:40:05;41.03;;;18.90;;
27161;SDS011;54464;50.558;9.704;2023-01-20T08:42:33;37.43;;;17.63;;
27161;SDS011;54464;50.558;9.704;2023-01-20T08:44:59;37.27;;;17.40;;
27161;SDS011;54464;50.558;9.704;2023-01-20T08:47:25;32.83;;;17.13;;
27161;SDS011;54464;50.558;9.704;2023-01-20T08:49:53;35.17;;;16.70;;
27161;SDS011;54464;50.558;9.704;2023-01-20T08:52:19;27.43;;;12.87;;
27161;SDS011;54464;50.558;9.704;2023-01-20T08:54:44;30.70;;;14.00;;
27161;SDS011;54464;50.558;9.704;2023-01-20T08:57:10;30.50;;;14.57;;
27161;SDS011;54464;50.558;9.704;2023-01-20T08:59:36;30.47;;;14.83;;
27161;SDS011;54464;50.558;9.704;2023-01-20T09:02:01;33.00;;;15.37;;
27161;SDS011;54464;50.558;9.704;2023-01-20T09:04:27;29.97;;;15.20;;
27161;SDS011;54464;50.558;9.704;2023-01-20T09:06:53;28.00;;;15.10;;
27161;SDS011;54464;50.558;9.704;2023-01-20T09:09:19;28.07;;;13.60;;
27161;SDS011;54464;50.558;9.704;2023-01-20T09:11:46;31.60;;;15.47;;
27161;SDS011;54464;50.558;9.704;2023-01-20T09:14:16;26.10;;;12.53;;
27161;SDS011;54464;50.558;9.704;2023-01-20T09:16:46;34.77;;;15.00;;
27161;SDS011;54464;50.558;9.704;2023-01-20T09:19:12;34.47;;;15.97;;
27161;SDS011;54464;50.558;9.704;2023-01-20T09:21:38;29.97;;;13.40;;
27161;SDS011;54464;50.558;9.704;2023-01-20T09:24:04;33.10;;;16.20;;
27161;SDS011;54464;50.558;9.704;2023-01-20T09:26:30;32.87;;;14.93;;
27161;SDS011;54464;50.558;9.704;2023-01-20T09:29:02;32.37;;;15.23;;
27161;SDS011;54464;50.558;9.704;2023-01-20T09:31:32;31.93;;;14.77;;
27161;SDS011;54464;50.558;9.704;2023-01-20T09:33:59;33.67;;;14.93;;
27161;SDS011;54464;50.558;9.704;2023-01-20T09:36:26;39.10;;;18.03;;
27161;SDS011;54464;50.558;9.704;2023-01-20T09:38:54;36.07;;;17.10;;
27161;SDS011;54464;50.558;9.704;2023-01-20T09:41:38;33.93;;;14.43;;
27161;SDS011;54464;50.558;9.704;2023-01-20T09:44:47;30.60;;;14.57;;
27161;SDS011;54464;50.558;9.704;2023-01-20T09:47:21;30.97;;;12.73;;
27161;SDS011;54464;50.558;9.704;2023-01-20T09:52:55;28.60;;;13.20;;
27161;SDS011;54464;50.558;9.704;2023-01-20T10:00:41;34.87;;;16.33;;
27161;SDS011;54464;50.558;9.704;2023-01-20T10:03:23;33.00;;;14.60;;
27161;SDS011;54464;50.558;9.704;2023-01-20T10:05:54;27.90;;;12.83;;
27161;SDS011;54464;50.558;9.704;2023-01-20T10:11:45;31.33;;;14.80;;
27161;SDS011;54464;50.558;9.704;2023-01-20T10:14:14;29.37;;;14.43;;
27161;SDS011;54464;50.558;9.704;2023-01-20T10:17:41;27.70;;;13.63;;
27161;SDS011;54464;50.558;9.704;2023-01-20T10:22:31;30.30;;;15.23;;
27161;SDS011;54464;50.558;9.704;2023-01-20T10:27:30;31.23;;;15.80;;
27161;SDS011;54464;50.558;9.704;2023-01-20T10:30:03;35.20;;;17.47;;
27161;SDS011;54464;50.558;9.704;2023-01-20T10:32:38;29.60;;;14.43;;
27161;SDS011;54464;50.558;9.704;2023-01-20T10:37:46;32.27;;;17.40;;
27161;SDS011;54464;50.558;9.704;2023-01-20T10:43:08;34.03;;;15.97;;
27161;SDS011;54464;50.558;9.704;2023-01-20T10:45:43;33.43;;;15.37;;
27161;SDS011;54464;50.558;9.704;2023-01-20T10:56:34;34.27;;;16.27;;
27161;SDS011;54464;50.558;9.704;2023-01-20T10:59:13;42.17;;;19.77;;
27161;SDS011;54464;50.558;9.704;2023-01-20T11:01:42;30.77;;;15.87;;
27161;SDS011;54464;50.558;9.704;2023-01-20T11:04:14;34.27;;;17.20;;
27161;SDS011;54464;50.558;9.704;2023-01-20T11:06:42;30.23;;;16.20;;
27161;SDS011;54464;50.558;9.704;2023-01-20T11:09:18;38.00;;;18.37;;
27161;SDS011;54464;50.558;9.704;2023-01-20T11:11:52;35.03;;;17.87;;
27161;SDS011;54464;50.558;9.704;2023-01-20T11:14:20;32.87;;;16.60;;
27161;SDS011;54464;50.558;9.704;2023-01-20T11:16:48;31.97;;;16.83;;
27161;SDS011;54464;50.558;9.704;2023-01-20T11:19:25;36.93;;;17.13;;
27161;SDS011;54464;50.558;9.704;2023-01-20T11:21:51;37.57;;;18.13;;
27161;SDS011;54464;50.558;9.704;2023-01-20T11:24:27;37.43;;;17.87;;
27161;SDS011;54464;50.558;9.704;2023-01-20T11:27:04;35.97;;;18.00;;
27161;SDS011;54464;50.558;9.704;2023-01-20T11:29:32;35.00;;;17.93;;
27161;SDS011;54464;50.558;9.704;2023-01-20T11:32:23;32.03;;;16.50;;
27161;SDS011;54464;50.558;9.704;2023-01-20T11:34:49;39.03;;;20.27;;
27161;SDS011;54464;50.558;9.704;2023-01-20T11:37:17;35.23;;;18.53;;
27161;SDS011;54464;50.558;9.704;2023-01-20T11:42:14;31.40;;;17.63;;
27161;SDS011;54464;50.558;9.704;2023-01-20T11:44:51;34.83;;;16.97;;
27161;SDS011;54464;50.558;9.704;2023-01-20T11:52:28;31.87;;;17.13;;
27161;SDS011;54464;50.558;9.704;2023-01-20T11:55:07;40.80;;;21.07;;
27161;SDS011;54464;50.558;9.704;2023-01-20T11:57:43;31.50;;;17.10;;
27161;SDS011;54464;50.558;9.704;2023-01-20T12:08:16;32.53;;;17.90;;
27161;SDS011;54464;50.558;9.704;2023-01-20T12:10:50;36.77;;;18.20;;
27161;SDS011;54464;50.558;9.704;2023-01-20T12:15:47;35.67;;;19.87;;
27161;SDS011;54464;50.558;9.704;2023-01-20T12:18:41;38.10;;;20.63;;
27161;SDS011;54464;50.558;9.704;2023-01-20T12:21:14;29.13;;;16.87;;
27161;SDS011;54464;50.558;9.704;2023-01-20T12:23:51;34.60;;;19.47;;
27161;SDS011;54464;50.558;9.704;2023-01-20T12:26:38;39.17;;;20.13;;
27161;SDS011;54464;50.558;9.704;2023-01-20T12:29:06;33.20;;;18.50;;
27161;SDS011;54464;50.558;9.704;2023-01-20T12:31:46;36.83;;;20.63;;
27161;SDS011;54464;50.558;9.704;2023-01-20T12:34:16;33.00;;;18.33;;
27161;SDS011;54464;50.558;9.704;2023-01-20T12:40:22;31.27;;;16.40;;
27161;SDS011;54464;50.558;9.704;2023-01-20T13:16:12;29.20;;;18.40;;
27161;SDS011;54464;50.558;9.704;2023-01-20T13:18:45;28.97;;;17.07;;
27161;SDS011;54464;50.558;9.704;2023-01-20T13:21:31;37.87;;;23.70;;
27161;SDS011;54464;50.558;9.704;2023-01-20T13:23:58;31.27;;;18.67;;
27161;SDS011;54464;50.558;9.704;2023-01-20T13:26:26;27.70;;;17.50;;
27161;SDS011;54464;50.558;9.704;2023-01-20T13:28:54;25.03;;;15.77;;
27161;SDS011;54464;50.558;9.704;2023-01-20T13:39:47;27.47;;;16.20;;
27161;SDS011;54464;50.558;9.704;2023-01-20T13:50:35;26.63;;;15.87;;
27161;SDS011;54464;50.558;9.704;2023-01-20T13:58:13;24.33;;;16.07;;
27161;SDS011;54464;50.558;9.704;2023-01-20T14:00:43;26.97;;;16.03;;
27161;SDS011;54464;50.558;9.704;2023-01-20T14:03:19;23.17;;;14.90;;
27161;SDS011;54464;50.558;9.704;2023-01-20T14:06:05;31.47;;;18.23;;
27161;SDS011;54464;50.558;9.704;2023-01-20T14:08:52;20.17;;;13.13;;
27161;SDS011;54464;50.558;9.704;2023-01-20T14:11:19;24.40;;;15.17;;
27161;SDS011;54464;50.558;9.704;2023-01-20T14:13:56;29.57;;;17.47;;
27161;SDS011;54464;50.558;9.704;2023-01-20T14:19:18;28.23;;;16.97;;
27161;SDS011;54464;50.558;9.704;2023-01-20T14:21:49;25.80;;;15.53;;
27161;SDS011;54464;50.558;9.704;2023-01-20T14:24:30;28.93;;;17.47;;
27161;SDS011;54464;50.558;9.704;2023-01-20T14:27:18;26.47;;;15.87;;
27161;SDS011;54464;50.558;9.704;2023-01-20T14:29:47;24.90;;;15.63;;
27161;SDS011;54464;50.558;9.704;2023-01-20T14:32:16;26.80;;;16.63;;
27161;SDS011;54464;50.558;9.704;2023-01-20T14:34:42;24.17;;;16.13;;
27161;SDS011;54464;50.558;9.704;2023-01-20T14:37:30;20.47;;;13.33;;
27161;SDS011;54464;50.558;9.704;2023-01-20T14:40:00;24.70;;;15.73;;
27161;SDS011;54464;50.558;9.704;2023-01-20T14:42:32;18.77;;;12.93;;
27161;SDS011;54464;50.558;9.704;2023-01-20T14:44:57;23.27;;;14.73;;
27161;SDS011;54464;50.558;9.704;2023-01-20T14:47:24;21.60;;;13.33;;
27161;SDS011;54464;50.558;9.704;2023-01-20T14:49:51;19.87;;;13.33;;
27161;SDS011;54464;50.558;9.704;2023-01-20T14:54:45;22.03;;;14.03;;
27161;SDS011;54464;50.558;9.704;2023-01-20T14:57:21;26.03;;;16.40;;
27161;SDS011;54464;50.558;9.704;2023-01-20T14:59:59;24.63;;;15.17;;
27161;SDS011;54464;50.558;9.704;2023-01-20T15:02:30;29.60;;;17.63;;
27161;SDS011;54464;50.558;9.704;2023-01-20T15:04:58;28.37;;;17.93;;
27161;SDS011;54464;50.558;9.704;2023-01-20T15:07:24;26.27;;;15.70;;
27161;SDS011;54464;50.558;9.704;2023-01-20T15:10:00;24.70;;;16.83;;
27161;SDS011;54464;50.558;9.704;2023-01-20T15:12:33;25.27;;;15.53;;
27161;SDS011;54464;50.558;9.704;2023-01-20T15:15:24;26.50;;;16.93;;
27161;SDS011;54464;50.558;9.704;2023-01-20T15:20:30;26.43;;;17.33;;
27161;SDS011;54464;50.558;9.704;2023-01-20T15:22:57;50.07;;;31.60;;
27161;SDS011;54464;50.558;9.704;2023-01-20T15:25:24;38.10;;;24.23;;
27161;SDS011;54464;50.558;9.704;2023-01-20T15:27:51;31.43;;;20.33;;
27161;SDS011;54464;50.558;9.704;2023-01-20T15:30:18;30.20;;;20.07;;
27161;SDS011;54464;50.558;9.704;2023-01-20T15:32:48;28.03;;;18.23;;
27161;SDS011;54464;50.558;9.704;2023-01-20T15:35:15;25.97;;;17.33;;
27161;SDS011;54464;50.558;9.704;2023-01-20T15:37:44;28.70;;;18.20;;
27161;SDS011;54464;50.558;9.704;2023-01-20T15:40:16;29.80;;;19.23;;
27161;SDS011;54464;50.558;9.704;2023-01-20T15:42:46;27.43;;;19.20;;
27161;SDS011;54464;50.558;9.704;2023-01-20T15:45:16;29.30;;;18.20;;
27161;SDS011;54464;50.558;9.704;2023-01-20T15:47:43;31.80;;;20.00;;
27161;SDS011;54464;50.558;9.704;2023-01-20T15:50:20;29.97;;;20.20;;
27161;SDS011;54464;50.558;9.704;2023-01-20T15:52:47;31.17;;;20.23;;
27161;SDS011;54464;50.558;9.704;2023-01-20T15:55:14;33.57;;;19.73;;
27161;SDS011;54464;50.558;9.704;2023-01-20T15:57:41;41.20;;;22.83;;
27161;SDS011;54464;50.558;9.704;2023-01-20T16:00:19;45.80;;;24.30;;
27161;SDS011;54464;50.558;9.704;2023-01-20T16:02:46;55.27;;;25.47;;
27161;SDS011;54464;50.558;9.704;2023-01-20T16:05:12;56.47;;;26.67;;
27161;SDS011;54464;50.558;9.704;2023-01-20T16:07:38;49.10;;;24.80;;
27161;SDS011;54464;50.558;9.704;2023-01-20T16:10:08;41.57;;;23.13;;
27161;SDS011;54464;50.558;9.704;2023-01-20T16:12:37;46.13;;;24.33;;
27161;SDS011;54464;50.558;9.704;2023-01-20T16:15:03;40.60;;;22.37;;
27161;SDS011;54464;50.558;9.704;2023-01-20T16:17:29;49.47;;;26.10;;
27161;SDS011;54464;50.558;9.704;2023-01-20T16:19:56;49.53;;;25.73;;
27161;SDS011;54464;50.558;9.704;2023-01-20T16:22:22;45.03;;;24.30;;
27161;SDS011;54464;50.558;9.704;2023-01-20T16:24:48;35.30;;;23.03;;
27161;SDS011;54464;50.558;9.704;2023-01-20T16:27:16;36.53;;;22.13;;
27161;SDS011;54464;50.558;9.704;2023-01-20T16:29:45;39.63;;;23.13;;
27161;SDS011;54464;50.558;9.704;2023-01-20T16:32:11;45.00;;;25.43;;
27161;SDS011;54464;50.558;9.704;2023-01-20T16:34:37;43.90;;;26.00;;
27161;SDS011;54464;50.558;9.704;2023-01-20T16:37:03;52.33;;;27.83;;
27161;SDS011;54464;50.558;9.704;2023-01-20T16:39:30;50.80;;;28.97;;
27161;SDS011;54464;50.558;9.704;2023-01-20T16:41:57;52.67;;;29.33;;
27161;SDS011;54464;50.558;9.704;2023-01-20T16:44:22;47.80;;;28.83;;
27161;SDS011;54464;50.558;9.704;2023-01-20T16:46:48;48.50;;;28.20;;
27161;SDS011;54464;50.558;9.704;2023-01-20T16:49:14;44.43;;;28.37;;
27161;SDS011;54464;50.558;9.704;2023-01-20T16:51:39;45.63;;;27.37;;
27161;SDS011;54464;50.558;9.704;2023-01-20T16:54:05;39.70;;;23.83;;
27161;SDS011;54464;50.558;9.704;2023-01-20T16:56:31;43.47;;;25.17;;
27161;SDS011;54464;50.558;9.704;2023-01-20T16:58:59;44.93;;;25.87;;
27161;SDS011;54464;50.558;9.704;2023-01-20T17:01:26;48.73;;;25.87;;
27161;SDS011;54464;50.558;9.704;2023-01-20T17:04:02;43.23;;;24.17;;
27161;SDS011;54464;50.558;9.704;2023-01-20T17:06:29;48.70;;;28.47;;